Groom Creek, Arizona
Current Conditions -  °F | °C
As of 3:53 PM on Thursday 18 Dec 2014 (Local Time) from KPRC Reporting Station
Broken Clouds Broken Clouds  
Wind Chill: 40°   Ceiling: 4700
Heat Index: 44°   Visibility: 10mi
Dew Point: 27°   Wind: 8mph
Humidity: 51%   Direction: 340°NNW
Pressure: 30.11"   Gusts: NA
Location:  34.5368°N, 112.512°W
Report Text: KPRC 182253Z 34007KT 10SM BKN047 07/M03 A3011 RMK AO2 SLP179 T00671028
Loading
Personal Weather Stations






























Interactive Weather Map New forecast layout! Learn more

10-Day Weather Forecast

Advertisements
Track Severe Weather on mobile